Time;durP1;ratioP1;P1;durP2;ratioP2;P2;SDS_P1;SDS_P2;PMS_P1;PMS_P2;Temp;Humidity;BMP_temperature;BMP_pressure;BME280_temperature;BME280_humidity;BME280_pressure;Samples;Min_cycle;Max_cycle;Signal;HPM_P1;HPM_P2
2022/04/13 04:22:44;;;;;;;12.75;7.38;;;;;;;10.14;94.99;99994.84;5150661;27;20357;-77
2022/04/13 04:25:09;;;;;;;12.07;6.68;;;;;;;10.04;95.38;99984.41;5150967;27;20049;-77
2022/04/13 04:27:35;;;;;;;10.98;7.47;;;;;;;10.07;95.07;99989.38;5130041;28;20039;-77
2022/04/13 04:30:02;;;;;;;11.45;7.32;;;;;;;10.01;95.27;99984.75;5130042;28;20020;-78
2022/04/13 04:32:28;;;;;;;12.45;6.93;;;;;;;9.98;95.86;99987.78;5129394;28;20039;-77
2022/04/13 04:34:54;;;;;;;9.70;6.55;;;;;;;10.01;95.43;99988.25;5130112;27;20031;-76
2022/04/13 04:37:19;;;;;;;10.07;5.80;;;;;;;10.06;95.58;99991.22;5129509;27;20115;-76
2022/04/13 04:39:45;;;;;;;9.60;5.63;;;;;;;10.02;95.39;99989.91;5111353;28;20054;-77
2022/04/13 04:42:11;;;;;;;12.10;6.10;;;;;;;10.09;94.65;99998.00;5129099;27;20036;-77
2022/04/13 04:44:36;;;;;;;12.70;7.43;;;;;;;10.03;95.19;99996.88;5111136;28;20051;-77
2022/04/13 04:47:03;;;;;;;7.40;5.18;;;;;;;9.96;95.31;99993.25;5129368;27;20035;-77
2022/04/13 04:49:28;;;;;;;9.00;6.00;;;;;;;9.88;96.03;99993.31;5129519;28;20030;-78
2022/04/13 04:51:54;;;;;;;9.23;5.60;;;;;;;9.79;96.07;99994.38;5129126;27;20380;-78
2022/04/13 04:54:20;;;;;;;8.85;5.38;;;;;;;9.78;96.23;99992.72;5129264;28;20076;-77
2022/04/13 04:56:45;;;;;;;15.00;7.20;;;;;;;9.77;96.55;99996.38;5129216;27;20035;-77
2022/04/13 04:59:11;;;;;;;8.63;5.10;;;;;;;9.81;96.74;100005.66;5093703;28;20043;-77
2022/04/13 05:01:37;;;;;;;11.88;6.50;;;;;;;9.83;96.31;100013.47;5128941;28;20034;-77
2022/04/13 05:04:02;;;;;;;10.52;5.95;;;;;;;9.94;95.69;100010.41;5112543;28;20073;-77
2022/04/13 05:06:29;;;;;;;10.13;5.88;;;;;;;9.85;96.93;100017.63;5129904;27;20035;-77
2022/04/13 05:08:55;;;;;;;10.63;5.47;;;;;;;9.89;96.71;100010.94;5129385;27;20070;-77
2022/04/13 05:11:22;;;;;;;10.35;5.55;;;;;;;9.85;96.64;100011.47;5129203;28;20464;-75
2022/04/13 05:13:48;;;;;;;10.73;6.13;;;;;;;9.93;96.24;100016.75;5129929;27;20107;-77
2022/04/13 05:16:15;;;;;;;9.40;5.45;;;;;;;10.03;95.31;100020.81;5130762;27;20047;-77
2022/04/13 05:18:41;;;;;;;7.47;5.13;;;;;;;10.05;95.20;100010.84;5114089;28;20051;-77
2022/04/13 05:21:08;;;;;;;9.45;6.13;;;;;;;10.10;95.08;100007.66;5132027;27;20061;-77
2022/04/13 05:23:34;;;;;;;10.65;5.28;;;;;;;10.05;96.65;100018.84;5131639;28;20071;-77
2022/04/13 05:25:59;;;;;;;12.35;5.60;;;;;;;9.83;97.81;100001.00;5131329;27;20061;-78
2022/04/13 05:28:25;;;;;;;9.88;5.57;;;;;;;9.97;97.00;100021.53;5131933;28;20027;-77
2022/04/13 05:30:51;;;;;;;10.02;5.57;;;;;;;9.98;96.83;100022.38;5130875;28;20036;-73
2022/04/13 05:33:16;;;;;;;10.63;6.03;;;;;;;10.05;96.37;100028.66;5100703;28;20629;-72
2022/04/13 05:35:42;;;;;;;10.90;6.38;;;;;;;10.14;96.23;100024.09;5114840;28;20031;-72
2022/04/13 05:38:07;;;;;;;13.43;8.25;;;;;;;10.21;96.06;100023.22;5114976;28;20100;-71
2022/04/13 05:40:33;;;;;;;10.35;6.28;;;;;;;10.29;95.58;100031.19;5114796;28;20035;-72
2022/04/13 05:42:59;;;;;;;11.05;5.70;;;;;;;10.36;96.02;100033.13;5114397;28;20054;-73
2022/04/13 05:45:25;;;;;;;11.23;5.85;;;;;;;10.46;95.17;100029.25;5114588;28;20036;-71
2022/04/13 05:47:50;;;;;;;11.93;5.63;;;;;;;10.63;93.80;100029.09;5114619;28;20035;-72
2022/04/13 05:50:16;;;;;;;8.70;5.13;;;;;;;10.65;94.47;100029.78;5114535;28;20392;-72
2022/04/13 05:52:43;;;;;;;8.95;5.03;;;;;;;10.66;96.34;100042.09;5114105;28;20434;-72
2022/04/13 05:55:10;;;;;;;14.27;6.68;;;;;;;10.70;94.45;100044.22;5114394;28;20039;-72
2022/04/13 05:57:36;;;;;;;15.57;7.28;;;;;;;10.81;93.81;100035.78;5114439;28;20439;-72
2022/04/13 06:00:03;;;;;;;9.38;5.07;;;;;;;10.78;94.74;100038.00;5114506;28;20036;-74
2022/04/13 06:02:30;;;;;;;7.60;5.43;;;;;;;10.85;95.22;100034.44;5114068;28;20038;-72
2022/04/13 06:04:56;;;;;;;8.27;5.00;;;;;;;11.02;94.97;100043.13;5115419;28;20043;-72
2022/04/13 06:07:21;;;;;;;6.82;4.38;;;;;;;11.12;96.56;100046.34;5114417;28;20498;-72
2022/04/13 06:09:47;;;;;;;9.18;5.22;;;;;;;11.27;94.00;100048.19;5114185;28;20044;-71
2022/04/13 06:12:20;;;;;;;10.85;4.85;;;;;;;11.39;94.32;100055.56;5113814;28;20032;-71
2022/04/13 06:14:46;;;;;;;9.20;5.50;;;;;;;11.55;91.91;100062.56;5114399;28;20035;-72
2022/04/13 06:17:11;;;;;;;13.45;5.85;;;;;;;11.71;91.09;100063.38;5112855;28;20032;-72
2022/04/13 06:19:37;;;;;;;14.93;5.72;;;;;;;11.85;89.70;100063.41;5111038;28;20032;-69
2022/04/13 06:22:02;;;;;;;12.38;5.60;;;;;;;12.02;90.93;100069.38;5113370;28;20028;-70
2022/04/13 06:24:28;;;;;;;9.15;5.15;;;;;;;12.15;89.22;100069.53;5117089;28;20050;-70
2022/04/13 06:26:54;;;;;;;8.00;5.35;;;;;;;12.34;90.20;100069.94;5115214;28;20032;-69
2022/04/13 06:29:19;;;;;;;9.07;4.57;;;;;;;12.47;88.31;100072.75;5095481;28;20043;-70
2022/04/13 06:31:45;;;;;;;8.85;4.55;;;;;;;12.65;87.60;100082.97;5095145;28;20035;-69
2022/04/13 06:34:10;;;;;;;13.43;5.28;;;;;;;12.80;86.62;100086.44;5095926;28;20024;-70
2022/04/13 06:36:36;;;;;;;11.02;5.63;;;;;;;12.92;85.35;100084.09;5095532;28;20043;-71
2022/04/13 06:39:02;;;;;;;11.00;5.40;;;;;;;13.04;84.08;100085.22;5113157;28;20035;-70
2022/04/13 06:41:27;;;;;;;10.13;4.32;;;;;;;13.20;83.03;100095.66;5113522;28;20038;-70
2022/04/13 06:43:53;;;;;;;12.70;5.63;;;;;;;13.36;81.47;100091.84;5112863;28;20047;-69
2022/04/13 06:46:19;;;;;;;16.45;5.20;;;;;;;13.49;82.70;100093.78;5113227;28;20042;-70
2022/04/13 06:48:45;;;;;;;13.40;4.90;;;;;;;13.68;80.00;100100.28;5113350;28;20032;-70
2022/04/13 06:51:11;;;;;;;10.55;4.75;;;;;;;13.80;78.30;100099.56;5113496;28;20035;-69
2022/04/13 06:53:36;;;;;;;11.27;4.70;;;;;;;13.95;78.76;100098.59;5112481;28;20480;-71
2022/04/13 06:56:02;;;;;;;5.93;4.45;;;;;;;14.07;75.39;100108.53;5113217;28;20065;-70
2022/04/13 06:58:28;;;;;;;8.65;4.40;;;;;;;14.17;74.76;100107.34;5112935;28;20480;-70
2022/04/13 07:00:57;;;;;;;12.18;4.97;;;;;;;14.30;74.52;100110.91;5078402;28;20027;-70
2022/04/13 07:03:24;;;;;;;11.30;4.88;;;;;;;14.44;75.01;100119.00;5094578;28;20040;-69
2022/04/13 07:05:49;;;;;;;10.80;5.07;;;;;;;14.50;73.09;100121.72;5094434;28;20146;-70
2022/04/13 07:08:15;;;;;;;9.40;4.50;;;;;;;14.63;73.43;100121.75;5112784;28;20115;-70
2022/04/13 07:10:41;;;;;;;10.40;5.10;;;;;;;14.77;73.16;100127.16;5094891;28;20114;-70
2022/04/13 07:13:11;;;;;;;14.98;5.38;;;;;;;14.88;72.71;100132.75;5112653;28;20512;-70
2022/04/13 07:15:36;;;;;;;9.88;5.10;;;;;;;14.96;72.06;100122.84;5113101;28;20027;-77
2022/04/13 07:18:02;;;;;;;11.73;4.93;;;;;;;15.09;71.05;100126.38;5078674;28;20088;-77
2022/04/13 07:20:28;;;;;;;13.02;4.88;;;;;;;15.24;71.10;100128.84;5114876;28;20407;-71
2022/04/13 07:22:54;;;;;;;11.23;5.53;;;;;;;15.47;69.92;100125.75;5112755;28;20088;-70
2022/04/13 07:25:22;;;;;;;14.30;5.75;;;;;;;15.57;69.11;100128.81;5113025;28;20036;-69
2022/04/13 07:27:48;;;;;;;12.02;5.45;;;;;;;15.70;67.82;100128.00;5112661;28;20032;-69
2022/04/13 07:30:14;;;;;;;12.13;5.65;;;;;;;15.79;65.96;100132.13;5112398;28;20138;-70
2022/04/13 07:32:47;;;;;;;13.65;5.53;;;;;;;15.75;67.01;100120.16;5111703;28;20465;-69
2022/04/13 07:35:14;;;;;;;12.85;5.97;;;;;;;15.92;67.64;100126.72;5112623;28;20058;-69
2022/04/13 07:37:40;;;;;;;8.23;5.15;;;;;;;15.99;67.19;100132.91;5112580;28;20031;-71
2022/04/13 07:40:11;;;;;;;11.38;5.05;;;;;;;15.93;62.93;100133.75;5112723;28;20028;-69
2022/04/13 07:42:36;;;;;;;11.45;5.25;;;;;;;15.96;62.11;100132.50;5112361;28;20411;-69
2022/04/13 07:45:04;;;;;;;13.40;5.07;;;;;;;16.29;63.36;100132.38;5112873;28;20044;-70
2022/04/13 07:47:30;;;;;;;;;;;;;;;16.47;62.08;100140.56;5113130;28;20041;-70
2022/04/13 07:49:56;;;;;;;8.90;4.85;;;;;;;16.48;62.02;100141.41;5112511;28;19982;-69
2022/04/13 07:52:22;;;;;;;7.75;4.28;;;;;;;16.58;59.28;100146.31;5111813;28;20440;-69
2022/04/13 07:54:47;;;;;;;10.10;5.38;;;;;;;16.79;60.00;100146.03;5112675;28;20042;-69
2022/04/13 07:57:13;;;;;;;10.60;4.43;;;;;;;16.83;62.36;100157.19;5112009;28;20066;-71
2022/04/13 07:59:41;;;;;;;11.05;5.10;;;;;;;17.01;64.10;100154.56;5060426;28;20039;-70
2022/04/13 08:02:07;;;;;;;11.18;4.65;;;;;;;17.15;60.92;100158.84;5111902;28;20043;-71
2022/04/13 08:04:36;;;;;;;7.60;4.45;;;;;;;17.27;60.85;100154.38;5112119;28;20047;-70
2022/04/13 08:07:02;;;;;;;11.10;4.30;;;;;;;17.42;60.72;100154.06;5112015;28;20051;-69
2022/04/13 08:09:28;;;;;;;9.18;4.28;;;;;;;17.51;57.46;100157.28;5112130;28;20031;-69
2022/04/13 08:11:54;;;;;;;7.90;3.80;;;;;;;17.78;57.03;100164.13;5111639;28;20487;-70
2022/04/13 08:14:21;;;;;;;10.52;4.45;;;;;;;17.96;58.26;100165.19;5111967;28;20411;-70
2022/04/13 08:16:46;;;;;;;12.18;4.00;;;;;;;18.15;56.35;100166.84;5111711;28;20065;-70
2022/04/13 08:19:12;;;;;;;9.27;3.90;;;;;;;18.02;53.88;100167.81;5111709;28;20036;-70
2022/04/13 08:21:38;;;;;;;11.70;4.28;;;;;;;18.03;55.23;100164.06;5111589;28;20035;-71
2022/04/13 08:24:05;;;;;;;12.88;4.00;;;;;;;18.15;55.26;100170.38;5111830;28;20099;-70
2022/04/13 08:26:31;;;;;;;8.80;3.80;;;;;;;18.06;55.07;100177.13;5111927;28;20028;-70
2022/04/13 08:28:56;;;;;;;9.60;3.83;;;;;;;18.22;55.21;100181.06;5111847;28;20036;-70
2022/04/13 08:31:22;;;;;;;5.45;3.75;;;;;;;18.30;54.27;100171.84;5112116;28;20035;-69
2022/04/13 08:33:48;;;;;;;10.85;4.10;;;;;;;18.34;52.59;100181.16;5111585;28;20047;-70
2022/04/13 08:36:14;;;;;;;10.07;3.78;;;;;;;18.38;49.06;100182.31;5111751;28;20042;-70
2022/04/13 08:38:41;;;;;;;11.50;4.17;;;;;;;18.49;48.07;100184.28;5112037;28;20039;-69
2022/04/13 08:41:14;;;;;;;17.45;5.05;;;;;;;18.79;49.01;100178.94;5111743;28;20510;-70
2022/04/13 08:43:45;;;;;;;11.00;3.92;;;;;;;18.91;49.32;100181.69;5111693;28;20334;-69
2022/04/13 08:46:24;;;;;;;11.73;4.07;;;;;;;19.21;46.85;100173.53;5093374;28;20527;-70
2022/04/13 08:48:57;;;;;;;11.15;4.10;;;;;;;19.22;47.80;100165.22;5111588;28;20040;-70
2022/04/13 08:51:24;;;;;;;7.28;3.85;;;;;;;19.30;47.03;100174.03;5111406;28;20036;-69
2022/04/13 08:54:17;;;;;;;10.35;4.30;;;;;;;19.39;44.94;100169.94;5111468;28;20088;-70
2022/04/13 08:56:50;;;;;;;12.38;4.20;;;;;;;19.69;46.06;100165.31;5111348;28;20058;-70
2022/04/13 08:59:30;;;;;;;8.85;3.70;;;;;;;19.89;46.83;100156.84;5111979;28;20118;-70
2022/04/13 09:02:40;;;;;;;11.48;4.60;;;;;;;20.08;49.35;100156.69;5111976;28;20036;-70
2022/04/13 09:05:12;;;;;;;8.63;3.92;;;;;;;20.26;44.29;100160.06;5115184;28;20061;-71
2022/04/13 09:07:39;;;;;;;8.95;3.72;;;;;;;20.55;44.32;100163.66;5117699;28;20123;-70
2022/04/13 09:10:10;;;;;;;7.43;3.78;;;;;;;20.86;43.64;100165.06;5116563;28;20036;-70
2022/04/13 09:12:39;;;;;;;7.05;3.40;;;;;;;21.00;42.01;100162.88;5116015;28;20039;-70
2022/04/13 09:15:06;;;;;;;11.15;3.75;;;;;;;21.09;41.59;100166.00;5115262;28;20108;-71
2022/04/13 09:17:31;;;;;;;22.45;5.20;;;;;;;21.16;39.83;100163.97;5096881;28;20107;-71
2022/04/13 09:19:59;;;;;;;7.70;3.20;;;;;;;21.32;39.84;100163.19;5115353;28;20494;-70
2022/04/13 09:22:26;;;;;;;14.68;3.83;;;;;;;21.47;39.84;100161.81;5114811;28;20473;-71
2022/04/13 09:24:52;;;;;;;8.63;3.00;;;;;;;21.27;39.63;100163.06;5097283;28;20039;-70
2022/04/13 09:27:20;;;;;;;9.68;3.65;;;;;;;21.63;38.33;100152.81;5096786;28;20035;-70
2022/04/13 09:29:47;;;;;;;10.38;3.30;;;;;;;21.67;37.17;100160.22;5115076;28;20039;-70
2022/04/13 09:32:14;;;;;;;12.52;3.10;;;;;;;21.78;39.02;100154.94;5115359;28;20099;-69
2022/04/13 09:34:40;;;;;;;7.65;2.88;;;;;;;21.83;36.87;100163.97;5114945;28;20035;-70
2022/04/13 09:37:06;;;;;;;10.48;3.03;;;;;;;22.14;34.64;100165.25;5115050;28;20131;-70
2022/04/13 09:39:33;;;;;;;5.57;3.00;;;;;;;22.27;36.04;100153.19;5115251;28;20031;-70
2022/04/13 09:42:03;;;;;;;13.10;3.17;;;;;;;22.34;37.64;100158.44;5114943;28;20115;-70
2022/04/13 09:44:30;;;;;;;12.38;3.28;;;;;;;22.61;35.37;100158.47;5115446;28;20038;-70
2022/04/13 09:47:06;;;;;;;9.80;3.80;;;;;;;22.61;35.46;100164.72;5114409;28;20035;-71
2022/04/13 09:49:32;;;;;;;9.52;3.05;;;;;;;22.71;38.93;100164.03;5114558;28;20040;-71
2022/04/13 09:51:58;;;;;;;6.70;3.00;;;;;;;23.04;33.91;100159.50;5114298;28;20027;-70
2022/04/13 09:54:25;;;;;;;7.80;3.00;;;;;;;23.11;35.14;100160.09;5114683;28;20432;-71
2022/04/13 09:56:50;;;;;;;7.32;3.70;;;;;;;23.19;37.83;100171.31;5114262;28;20123;-71
2022/04/13 09:59:26;;;;;;;10.85;3.92;;;;;;;23.30;35.14;100166.81;5114481;28;20409;-70
2022/04/13 10:01:52;;;;;;;7.85;3.15;;;;;;;23.46;33.22;100157.69;5114154;28;20036;-70
2022/04/13 10:04:30;;;;;;;8.40;3.47;;;;;;;23.67;32.62;100149.69;5096221;28;20099;-70
2022/04/13 10:07:16;;;;;;;11.73;3.65;;;;;;;24.46;32.01;100152.31;5114043;28;20043;-70
2022/04/13 10:09:42;;;;;;;9.18;3.67;;;;;;;24.51;31.68;100148.78;5114058;28;20122;-70
2022/04/13 10:12:09;;;;;;;9.68;3.42;;;;;;;25.19;32.65;100149.50;5113807;28;20118;-71
2022/04/13 10:14:34;;;;;;;14.60;3.50;;;;;;;25.52;31.14;100155.47;5114176;28;20055;-71
2022/04/13 10:17:07;;;;;;;14.73;3.25;;;;;;;25.73;31.02;100151.66;5114024;28;20043;-70
2022/04/13 10:19:34;;;;;;;8.95;3.20;;;;;;;26.05;28.49;100151.31;5113915;28;20036;-70
2022/04/13 10:22:00;;;;;;;8.38;3.38;;;;;;;26.17;30.48;100143.63;5113761;28;20038;-70
2022/04/13 10:24:40;;;;;;;9.68;3.40;;;;;;;26.82;28.68;100143.59;5114200;28;20035;-69
2022/04/13 10:27:20;;;;;;;9.38;3.50;;;;;;;26.16;30.88;100138.44;5113831;28;20047;-71
2022/04/13 10:29:49;;;;;;;11.18;3.50;;;;;;;25.76;29.60;100133.94;5114080;28;20047;-71
2022/04/13 10:32:17;;;;;;;6.20;2.72;;;;;;;26.43;28.06;100140.81;5113483;28;20039;-71
2022/04/13 10:34:48;;;;;;;11.68;3.40;;;;;;;26.26;27.80;100135.66;5098581;22;20463;-70
2022/04/13 10:37:17;;;;;;;9.18;3.40;;;;;;;26.17;28.71;100131.88;5072863;28;20044;-70
2022/04/13 10:39:45;;;;;;;8.93;2.97;;;;;;;26.39;26.83;100136.97;5073035;28;20016;-71
2022/04/13 10:42:12;;;;;;;8.90;3.20;;;;;;;26.76;27.22;100133.78;5054828;28;20036;-71
2022/04/13 10:44:42;;;;;;;9.48;3.70;;;;;;;27.46;25.53;100128.09;5087609;28;20078;-71
2022/04/13 10:47:16;;;;;;;8.90;4.20;;;;;;;28.04;25.60;100131.59;5074794;28;20038;-71
2022/04/13 10:49:55;;;;;;;10.65;3.47;;;;;;;27.54;30.27;100139.22;5092992;28;20043;-71
2022/04/13 10:52:28;;;;;;;11.10;3.35;;;;;;;28.22;28.88;100130.00;5092710;28;20028;-72
2022/04/13 10:55:01;;;;;;;11.43;3.40;;;;;;;28.24;26.86;100126.97;5092857;28;20039;-73
2022/04/13 10:57:57;;;;;;;9.43;2.85;;;;;;;28.51;24.60;100132.66;5092875;28;20036;-74
2022/04/13 11:00:24;;;;;;;8.43;3.40;;;;;;;28.65;24.61;100119.03;5088827;28;20070;-70
2022/04/13 11:03:03;;;;;;;9.65;3.45;;;;;;;28.35;26.68;100121.09;5092452;28;20032;-73
2022/04/13 11:05:30;;;;;;;10.77;3.00;;;;;;;28.03;28.37;100116.25;5092821;28;20113;-72
2022/04/13 11:08:29;;;;;;;8.63;3.50;;;;;;;28.80;24.11;100129.78;5092857;28;20035;-73
2022/04/13 11:10:56;;;;;;;9.35;3.42;;;;;;;28.76;23.65;100116.97;5092467;28;20036;-72
2022/04/13 11:13:22;;;;;;;14.35;3.53;;;;;;;28.49;24.63;100109.41;5092430;28;20039;-70
2022/04/13 11:15:50;;;;;;;10.13;3.30;;;;;;;29.62;23.90;100120.25;5092539;28;20024;-70
2022/04/13 11:18:17;;;;;;;10.45;2.95;;;;;;;29.36;26.54;100120.69;5092339;28;20115;-73
2022/04/13 11:20:58;;;;;;;9.18;3.13;;;;;;;28.66;27.67;100120.66;5092494;28;20032;-72
2022/04/13 11:23:44;;;;;;;8.52;3.03;;;;;;;27.69;28.34;100130.06;5092123;28;20052;-73
2022/04/13 11:26:10;;;;;;;9.23;3.13;;;;;;;28.33;27.39;100119.75;5074566;28;20135;-74
2022/04/13 11:28:36;;;;;;;199.73;39.38;;;;;;;29.02;26.94;100120.19;5092330;28;20123;-73
2022/04/13 11:31:06;;;;;;;12.38;3.53;;;;;;;28.77;26.09;100121.34;5091727;28;20085;-71
2022/04/13 11:33:49;;;;;;;9.85;3.10;;;;;;;29.57;25.05;100117.59;5091741;28;20040;-73
2022/04/13 11:36:15;;;;;;;12.00;3.15;;;;;;;29.58;26.01;100117.28;5092156;28;20071;-70
2022/04/13 11:38:51;;;;;;;8.68;3.45;;;;;;;29.08;24.30;100108.81;5092205;28;20036;-71
2022/04/13 11:41:17;;;;;;;8.55;2.85;;;;;;;30.23;24.60;100110.81;5092359;28;20036;-71
2022/04/13 11:43:44;;;;;;;8.77;3.27;;;;;;;29.94;25.76;100111.13;5073657;28;20075;-72
2022/04/13 11:46:29;;;;;;;;;;;;;;;29.05;26.79;100108.59;5074325;28;20067;-72
2022/04/13 11:48:54;;;;;;;10.15;3.30;;;;;;;29.08;26.10;100105.25;5091929;28;19943;-71
2022/04/13 11:51:24;;;;;;;10.98;3.00;;;;;;;29.87;26.04;100111.53;5073821;28;20113;-72
2022/04/13 11:53:55;;;;;;;8.95;3.80;;;;;;;30.91;23.82;100107.13;5091600;28;20487;-72
2022/04/13 11:56:35;;;;;;;12.85;3.20;;;;;;;29.89;26.00;100105.72;5073780;28;20222;-72
2022/04/13 11:59:01;;;;;;;12.82;3.55;;;;;;;31.13;23.21;100106.28;5091755;28;20541;-72
2022/04/13 12:01:27;;;;;;;10.00;3.25;;;;;;;31.73;23.92;100105.00;5091686;28;20035;-72
2022/04/13 12:03:56;;;;;;;9.07;2.78;;;;;;;31.08;22.27;100106.41;5091589;28;20109;-72
2022/04/13 12:06:24;;;;;;;13.13;2.95;;;;;;;30.50;21.72;100097.03;5091793;28;20482;-72
2022/04/13 12:08:58;;;;;;;7.57;2.95;;;;;;;31.09;23.26;100099.78;5073394;28;20127;-72
2022/04/13 12:11:45;;;;;;;7.22;2.63;;;;;;;31.33;22.76;100091.22;5091436;28;20040;-72
2022/04/13 12:14:11;;;;;;;12.75;3.38;;;;;;;30.83;23.34;100096.03;5091529;28;20032;-72
2022/04/13 12:16:38;;;;;;;9.15;3.15;;;;;;;30.11;24.32;100083.06;5091629;28;20107;-72
2022/04/13 12:19:06;;;;;;;11.43;3.28;;;;;;;30.38;24.25;100093.19;5091501;28;20067;-72
2022/04/13 12:21:36;;;;;;;8.10;2.97;;;;;;;29.52;25.31;100088.31;5091859;28;20042;-72
2022/04/13 12:24:05;;;;;;;6.32;2.78;;;;;;;30.11;23.98;100085.81;5091263;28;20042;-72
2022/04/13 12:26:35;;;;;;;9.45;3.17;;;;;;;30.70;23.56;100090.28;5092003;28;20480;-72
2022/04/13 12:29:21;;;;;;;9.32;3.10;;;;;;;30.96;22.13;100087.72;5091538;28;20119;-72
2022/04/13 12:31:54;;;;;;;13.33;2.93;;;;;;;31.24;21.81;100091.19;5091179;28;20033;-72
2022/04/13 12:34:22;;;;;;;11.50;3.08;;;;;;;29.82;24.88;100091.59;5091229;28;20492;-72
2022/04/13 12:36:56;;;;;;;15.52;3.80;;;;;;;29.62;25.47;100095.56;5091416;28;20036;-72
2022/04/13 12:39:31;;;;;;;10.57;3.00;;;;;;;29.42;25.16;100080.25;5091299;28;20036;-71
2022/04/13 12:41:58;;;;;;;12.00;3.13;;;;;;;30.07;24.60;100093.03;5090917;28;20048;-71
2022/04/13 12:44:24;;;;;;;9.95;2.80;;;;;;;29.41;24.51;100086.88;5094627;28;20035;-72
2022/04/13 12:46:50;;;;;;;12.77;3.67;;;;;;;30.31;22.85;100082.63;5095363;28;20039;-72
2022/04/13 12:49:20;;;;;;;9.27;2.80;;;;;;;29.63;24.08;100087.00;5095575;28;20081;-71
2022/04/13 12:51:47;;;;;;;8.82;3.17;;;;;;;29.95;23.51;100072.38;5095129;28;20086;-71
2022/04/13 12:54:17;;;;;;;7.28;3.45;;;;;;;30.47;23.39;100072.94;5095662;28;20068;-72
2022/04/13 12:56:49;;;;;;;6.38;2.47;;;;;;;31.14;23.87;100079.59;5095377;28;20112;-71
2022/04/13 12:59:25;;;;;;;10.38;3.30;;;;;;;29.93;24.26;100066.38;5095185;28;20503;-71
2022/04/13 13:01:53;;;;;;;9.77;3.42;;;;;;;29.14;25.26;100074.69;5095067;28;20028;-73
2022/04/13 13:04:21;;;;;;;10.07;3.00;;;;;;;30.38;24.45;100072.00;5095177;28;20079;-70
2022/04/13 13:07:01;;;;;;;13.00;2.90;;;;;;;30.95;23.87;100075.09;5077006;28;20484;-70
2022/04/13 13:09:30;;;;;;;10.13;2.75;;;;;;;30.87;24.47;100075.84;5095045;28;20541;-73
2022/04/13 13:12:00;;;;;;;11.85;3.42;;;;;;;29.84;26.46;100073.69;5094627;28;20032;-72
2022/04/13 13:14:34;;;;;;;10.18;3.22;;;;;;;30.57;23.25;100068.31;5094889;28;20060;-73
2022/04/13 13:17:21;;;;;;;8.43;3.22;;;;;;;30.65;24.94;100064.84;5095078;28;20054;-76
2022/04/13 13:19:49;;;;;;;6.90;2.78;;;;;;;30.80;25.44;100067.25;5095130;28;20058;-74
2022/04/13 13:22:28;;;;;;;11.30;3.15;;;;;;;31.00;24.83;100052.97;5094533;28;20067;-72
2022/04/13 13:24:54;;;;;;;7.72;2.53;;;;;;;31.18;27.25;100058.59;5076699;28;20050;-74
2022/04/13 13:27:24;;;;;;;12.80;3.63;;;;;;;30.13;23.65;100047.88;5095263;28;20040;-73
2022/04/13 13:29:51;;;;;;;17.77;3.70;;;;;;;31.00;26.46;100050.22;5095231;28;20500;-77
2022/04/13 13:32:20;;;;;;;18.98;3.13;;;;;;;31.42;24.53;100048.03;5095096;28;20465;-75
2022/04/13 13:34:50;;;;;;;8.60;3.03;;;;;;;31.53;21.79;100045.84;5094437;28;20409;-76
2022/04/13 13:37:40;;;;;;;18.52;3.47;;;;;;;31.64;25.89;100043.63;5095709;28;20044;-76
2022/04/13 13:40:42;;;;;;;14.68;4.38;;;;;;;30.87;22.73;100045.63;5094882;28;20428;-77
2022/04/13 13:43:30;;;;;;;17.08;3.67;;;;;;;31.23;24.00;100041.94;5090410;28;20059;-73
2022/04/13 13:45:56;;;;;;;13.50;3.50;;;;;;;30.86;23.71;100030.25;5076322;28;20046;-77
2022/04/13 13:48:25;;;;;;;12.55;2.78;;;;;;;30.68;25.68;100042.25;5094594;28;20489;-74
2022/04/13 13:50:53;;;;;;;10.18;2.97;;;;;;;30.42;26.01;100040.06;5059748;28;20493;-75
2022/04/13 13:53:24;;;;;;;10.10;3.85;;;;;;;29.86;25.09;100038.50;5093914;28;20378;-77
2022/04/13 13:55:51;;;;;;;9.85;3.60;;;;;;;29.70;25.46;100039.97;5094991;28;20032;-78
2022/04/13 13:58:18;;;;;;;12.55;3.80;;;;;;;29.12;25.37;100040.47;5076656;28;20068;-76
2022/04/13 14:00:43;;;;;;;;;;;;;;;28.26;28.16;100037.94;5077604;28;20044;-74
2022/04/13 14:03:11;;;;;;;8.70;3.87;;;;;;;28.01;26.86;100041.84;5094438;28;19920;-75
2022/04/13 14:05:38;;;;;;;12.32;3.78;;;;;;;27.64;27.11;100039.78;5078606;28;20101;-75
2022/04/13 14:08:07;;;;;;;9.75;3.05;;;;;;;27.13;29.85;100050.47;5094096;28;20469;-77
2022/04/13 14:10:34;;;;;;;11.57;3.40;;;;;;;27.71;25.61;100044.94;5094261;28;20101;-76
2022/04/13 14:13:00;;;;;;;15.88;3.67;;;;;;;27.53;27.22;100039.13;5093491;28;20115;-76
2022/04/13 14:15:32;;;;;;;9.57;3.05;;;;;;;27.49;26.50;100037.25;5094679;28;20057;-76
2022/04/13 14:17:58;;;;;;;10.43;3.28;;;;;;;27.39;27.28;100026.44;5077093;28;20032;-77
2022/04/13 14:20:27;;;;;;;11.07;3.60;;;;;;;26.90;27.78;100041.06;5076618;28;20081;-78
2022/04/13 14:23:19;;;;;;;12.75;4.18;;;;;;;26.55;28.58;100026.59;5060409;28;20078;-78
2022/04/13 14:25:48;;;;;;;9.52;3.30;;;;;;;26.69;29.63;100013.91;5076661;28;20089;-75
2022/04/13 14:28:14;;;;;;;16.08;3.97;;;;;;;26.84;28.53;100026.63;5075660;28;20024;-78
2022/04/13 14:30:41;;;;;;;15.80;3.25;;;;;;;26.73;30.91;100030.53;5059425;28;20047;-75
2022/04/13 14:33:07;;;;;;;14.20;3.78;;;;;;;26.49;30.32;100030.47;5058655;28;20040;-75
2022/04/13 14:35:32;;;;;;;10.23;3.20;;;;;;;26.25;29.86;100014.72;5058879;28;20040;-73
2022/04/13 14:37:58;;;;;;;11.88;3.55;;;;;;;25.88;32.75;100033.47;5093679;28;20377;-71
2022/04/13 14:40:25;;;;;;;13.35;3.30;;;;;;;26.19;32.36;100037.69;5093497;28;20043;-74
2022/04/13 14:42:50;;;;;;;13.65;3.85;;;;;;;26.34;30.47;100030.50;5093209;28;20058;-75
2022/04/13 14:45:16;;;;;;;15.85;3.83;;;;;;;25.96;31.63;100033.72;5093168;28;20044;-73
2022/04/13 14:47:44;;;;;;;15.77;5.03;;;;;;;26.09;30.70;100036.94;5075114;28;20035;-75
2022/04/13 14:50:09;;;;;;;10.52;3.70;;;;;;;26.07;30.68;100034.47;5093160;28;20488;-73
2022/04/13 14:52:35;;;;;;;11.02;3.92;;;;;;;26.18;29.83;100030.59;5093070;28;20047;-72
2022/04/13 14:55:04;;;;;;;10.73;3.00;;;;;;;25.95;31.21;100036.72;5093068;28;20119;-76
2022/04/13 14:57:30;;;;;;;21.27;5.00;;;;;;;26.09;31.46;100032.31;5093144;28;20036;-73
2022/04/13 14:59:55;;;;;;;34.10;5.53;;;;;;;25.94;29.41;100024.19;5074906;28;20043;-70
2022/04/13 15:02:21;;;;;;;22.83;4.18;;;;;;;26.12;31.05;100026.28;5092747;28;20028;-73
2022/04/13 15:04:47;;;;;;;11.82;2.80;;;;;;;26.10;29.18;100027.66;5092652;28;20110;-77
2022/04/13 15:07:13;;;;;;;10.48;2.90;;;;;;;26.10;29.15;100023.03;5074465;28;20507;-75
2022/04/13 15:09:39;;;;;;;22.85;3.80;;;;;;;26.21;29.08;100031.94;5093387;28;20020;-74
2022/04/13 15:12:05;;;;;;;7.60;3.07;;;;;;;26.28;28.79;100029.75;5074336;28;20039;-74
2022/04/13 15:14:31;;;;;;;8.35;3.00;;;;;;;26.10;29.34;100028.47;5092529;28;20358;-76
2022/04/13 15:16:57;;;;;;;11.00;3.05;;;;;;;25.68;30.65;100026.16;5092533;28;20024;-76
2022/04/13 15:19:23;;;;;;;10.23;3.45;;;;;;;25.93;29.66;100030.72;5092960;28;20036;-76
2022/04/13 15:21:49;;;;;;;12.05;3.05;;;;;;;26.00;29.63;100036.69;5074249;28;20032;-76
2022/04/13 15:24:16;;;;;;;8.35;2.88;;;;;;;25.92;29.31;100035.38;5074356;28;20115;-74
2022/04/13 15:26:42;;;;;;;11.50;3.30;;;;;;;25.81;29.42;100031.06;5092523;28;20554;-74
2022/04/13 15:29:08;;;;;;;9.50;3.15;;;;;;;25.86;30.39;100032.94;5057508;28;20783;-75
2022/04/13 15:31:33;;;;;;;9.90;3.63;;;;;;;25.77;29.35;100034.63;5092117;28;20039;-73
2022/04/13 15:33:59;;;;;;;11.43;3.50;;;;;;;25.51;29.55;100026.50;5091950;28;20031;-73
2022/04/13 15:36:25;;;;;;;13.32;3.53;;;;;;;25.49;29.70;100020.50;5074148;28;20040;-74
2022/04/13 15:38:51;;;;;;;13.27;3.00;;;;;;;25.00;31.09;100037.47;5092198;28;20185;-73
2022/04/13 15:41:17;;;;;;;12.65;3.70;;;;;;;24.92;30.94;100029.84;5092229;28;20032;-73
2022/04/13 15:43:45;;;;;;;9.95;3.85;;;;;;;25.13;30.28;100045.13;5091781;28;20028;-73
2022/04/13 15:46:11;;;;;;;11.43;3.33;;;;;;;24.89;31.00;100033.91;5092176;28;20036;-73
2022/04/13 15:48:37;;;;;;;11.95;3.22;;;;;;;25.22;30.50;100041.81;5091976;28;20096;-73
2022/04/13 15:51:02;;;;;;;13.90;3.40;;;;;;;25.25;30.10;100039.38;5091930;28;20040;-73